createdAt,value
2023-01-20T00:01:36.201Z,18.70
2023-01-20T00:04:03.832Z,18.70
2023-01-20T00:06:31.450Z,18.70
2023-01-20T00:09:01.062Z,18.60
2023-01-20T00:11:29.152Z,18.70
2023-01-20T00:14:01.334Z,18.70
2023-01-20T00:16:31.021Z,18.60
2023-01-20T00:18:58.543Z,18.60
2023-01-20T00:21:26.036Z,18.60
2023-01-20T00:23:53.324Z,18.60
2023-01-20T00:26:23.394Z,18.60
2023-01-20T00:28:54.336Z,18.50
2023-01-20T00:31:26.341Z,18.50
2023-01-20T00:33:56.020Z,18.50
2023-01-20T00:36:24.679Z,18.50
2023-01-20T00:38:52.143Z,18.50
2023-01-20T00:41:20.171Z,18.50
2023-01-20T00:43:47.527Z,18.50
2023-01-20T00:46:15.514Z,18.50
2023-01-20T00:48:43.223Z,18.50
2023-01-20T00:51:11.318Z,18.50
2023-01-20T00:53:39.045Z,18.50
2023-01-20T00:56:06.774Z,18.40
2023-01-20T00:58:34.300Z,18.40
2023-01-20T01:01:02.077Z,18.40
2023-01-20T01:03:29.951Z,18.40
2023-01-20T01:06:08.799Z,18.40
2023-01-20T01:08:36.384Z,18.40
2023-01-20T01:11:04.823Z,18.40
2023-01-20T01:13:32.545Z,18.40
2023-01-20T01:16:00.125Z,18.40
2023-01-20T01:18:27.757Z,18.30
2023-01-20T01:20:55.018Z,18.30
2023-01-20T01:23:22.411Z,18.30
2023-01-20T01:25:49.739Z,18.30
2023-01-20T01:28:17.113Z,18.30
2023-01-20T01:30:44.471Z,18.30
2023-01-20T01:33:12.070Z,18.30
2023-01-20T01:35:39.355Z,18.30
2023-01-20T01:38:06.695Z,18.30
2023-01-20T01:40:35.132Z,18.30
2023-01-20T01:43:02.480Z,18.20
2023-01-20T01:45:30.668Z,18.20
2023-01-20T01:48:07.588Z,18.20
2023-01-20T01:50:34.892Z,18.20
2023-01-20T01:53:02.622Z,18.20
2023-01-20T01:55:33.975Z,18.20
2023-01-20T01:58:02.968Z,18.20
2023-01-20T02:00:30.495Z,18.10
2023-01-20T02:02:58.463Z,18.10
2023-01-20T02:05:28.446Z,18.10
2023-01-20T02:07:57.903Z,18.10
2023-01-20T02:10:25.833Z,18.10
2023-01-20T02:12:54.014Z,18.10
2023-01-20T02:15:27.375Z,18.10
2023-01-20T02:18:48.723Z,18.10
2023-01-20T02:21:36.843Z,18.10
2023-01-20T02:24:40.773Z,18.10
2023-01-20T02:27:36.593Z,18.10
2023-01-20T02:30:22.677Z,18.10
2023-01-20T02:32:58.615Z,18.00
2023-01-20T02:35:31.898Z,18.10
2023-01-20T02:38:14.265Z,18.00
2023-01-20T02:41:03.479Z,18.00
2023-01-20T02:43:43.743Z,18.00
2023-01-20T02:46:34.908Z,18.00
2023-01-20T02:49:19.937Z,18.00
2023-01-20T02:52:17.082Z,18.00
2023-01-20T02:54:48.823Z,18.00
2023-01-20T02:57:21.631Z,18.00
2023-01-20T02:59:53.128Z,17.90
2023-01-20T03:02:23.329Z,18.00
2023-01-20T03:05:01.475Z,18.00
2023-01-20T03:07:31.372Z,17.90
2023-01-20T03:10:01.416Z,17.90
2023-01-20T03:12:35.388Z,17.90
2023-01-20T03:15:03.159Z,17.90
2023-01-20T03:17:32.294Z,17.90
2023-01-20T03:20:00.604Z,17.90
2023-01-20T03:22:30.701Z,17.90
2023-01-20T03:24:59.358Z,17.90
2023-01-20T03:27:27.276Z,17.90
2023-01-20T03:29:54.578Z,17.90
2023-01-20T03:32:27.028Z,17.80
2023-01-20T03:34:55.972Z,17.80
2023-01-20T03:37:23.847Z,17.90
2023-01-20T03:39:52.101Z,17.90
2023-01-20T03:42:32.009Z,17.80
2023-01-20T03:45:15.096Z,17.80
2023-01-20T03:48:03.600Z,17.80
2023-01-20T03:51:09.038Z,17.80
2023-01-20T03:53:45.420Z,17.80
2023-01-20T03:56:25.273Z,17.80
2023-01-20T03:58:54.692Z,17.80
2023-01-20T04:01:26.989Z,17.80
2023-01-20T04:03:55.779Z,17.80
2023-01-20T04:06:25.805Z,17.80
2023-01-20T04:08:57.139Z,17.70
2023-01-20T04:11:26.136Z,17.80
2023-01-20T04:13:53.787Z,17.80
2023-01-20T04:16:22.687Z,17.70
2023-01-20T04:18:51.839Z,17.70
2023-01-20T04:21:35.201Z,17.70
2023-01-20T04:24:02.556Z,17.70
2023-01-20T04:26:29.832Z,17.70
2023-01-20T04:28:57.174Z,17.70
2023-01-20T04:31:30.510Z,17.70
2023-01-20T04:33:58.698Z,17.70
2023-01-20T04:36:25.983Z,17.70
2023-01-20T04:38:53.275Z,17.70
2023-01-20T04:41:20.571Z,17.70
2023-01-20T04:43:47.932Z,17.70
2023-01-20T04:46:16.226Z,17.70
2023-01-20T04:48:45.313Z,17.70
2023-01-20T04:51:13.127Z,17.70
2023-01-20T04:53:40.653Z,17.70
2023-01-20T04:56:12.974Z,17.70
2023-01-20T04:58:41.555Z,17.70
2023-01-20T05:01:09.295Z,17.60
2023-01-20T05:03:36.781Z,17.70
2023-01-20T05:06:06.247Z,17.70
2023-01-20T05:08:33.915Z,17.60
2023-01-20T05:11:01.262Z,17.70
2023-01-20T05:13:28.855Z,17.70
2023-01-20T05:15:56.550Z,17.70
2023-01-20T05:18:24.132Z,17.70
2023-01-20T05:20:51.406Z,17.70
2023-01-20T05:23:18.679Z,17.70
2023-01-20T05:25:53.012Z,17.70
2023-01-20T05:28:20.855Z,17.70
2023-01-20T05:30:48.672Z,17.70
2023-01-20T05:33:16.262Z,17.70
2023-01-20T05:35:43.602Z,17.70
2023-01-20T05:38:11.000Z,17.70
2023-01-20T05:40:38.596Z,17.70
2023-01-20T05:43:05.881Z,17.70
2023-01-20T05:45:33.843Z,17.70
2023-01-20T05:48:01.555Z,17.70
2023-01-20T05:50:29.651Z,17.60
2023-01-20T05:52:56.902Z,17.70
2023-01-20T05:55:24.233Z,17.70
2023-01-20T05:57:51.655Z,17.70
2023-01-20T06:00:19.533Z,17.70
2023-01-20T06:02:46.927Z,17.60
2023-01-20T06:05:14.693Z,17.60
2023-01-20T06:07:42.267Z,17.60
2023-01-20T06:10:10.291Z,17.60
2023-01-20T06:12:37.683Z,17.60
2023-01-20T06:15:05.609Z,17.60
2023-01-20T06:17:33.231Z,17.60
2023-01-20T06:20:00.838Z,17.60
2023-01-20T06:22:28.348Z,17.60
2023-01-20T06:24:55.743Z,17.60
2023-01-20T06:27:23.222Z,17.60
2023-01-20T06:29:50.932Z,17.60
2023-01-20T06:32:18.435Z,17.60
2023-01-20T06:34:46.145Z,17.60
2023-01-20T06:37:13.635Z,17.60
2023-01-20T06:39:40.928Z,17.60
2023-01-20T06:42:08.344Z,17.60
2023-01-20T06:44:35.796Z,17.60
2023-01-20T06:47:03.167Z,17.60
2023-01-20T06:49:30.518Z,17.60
2023-01-20T06:51:57.894Z,17.60
2023-01-20T06:54:25.478Z,17.60
2023-01-20T06:56:52.827Z,17.60
2023-01-20T06:59:20.059Z,17.60
2023-01-20T07:01:47.548Z,17.50
2023-01-20T07:04:15.253Z,17.60
2023-01-20T07:06:42.940Z,17.60
2023-01-20T07:09:11.893Z,17.60
2023-01-20T07:11:39.812Z,17.50
2023-01-20T07:14:07.908Z,17.60
2023-01-20T07:16:35.374Z,17.60
2023-01-20T07:19:02.851Z,17.60
2023-01-20T07:21:30.132Z,17.50
2023-01-20T07:24:01.136Z,17.50
2023-01-20T07:26:29.002Z,17.50
2023-01-20T07:28:58.690Z,17.60
2023-01-20T07:31:27.911Z,17.60
2023-01-20T07:34:13.827Z,17.60
2023-01-20T07:36:41.148Z,17.60
2023-01-20T07:39:10.880Z,17.60
2023-01-20T07:41:38.312Z,17.60
2023-01-20T07:44:05.792Z,17.60
2023-01-20T07:46:33.245Z,17.60
2023-01-20T07:49:00.655Z,17.60
2023-01-20T07:51:27.953Z,17.60
2023-01-20T07:53:55.300Z,17.60
2023-01-20T07:56:25.321Z,17.60
2023-01-20T07:58:53.920Z,17.60
2023-01-20T08:01:26.610Z,17.60
2023-01-20T08:03:54.143Z,17.60
2023-01-20T08:06:23.709Z,17.60
2023-01-20T08:08:51.626Z,17.70
2023-01-20T08:11:21.167Z,17.60
2023-01-20T08:13:49.004Z,17.70
2023-01-20T08:16:17.791Z,17.70
2023-01-20T08:18:45.185Z,17.70
2023-01-20T08:21:19.964Z,17.70
2023-01-20T08:23:47.331Z,17.70
2023-01-20T08:26:14.876Z,17.70
2023-01-20T08:28:42.463Z,17.70
2023-01-20T08:31:13.263Z,17.70
2023-01-20T08:33:42.634Z,17.80
2023-01-20T08:36:16.210Z,17.70
2023-01-20T08:38:44.547Z,17.70
2023-01-20T08:41:20.960Z,17.70
2023-01-20T08:43:49.235Z,17.60
2023-01-20T08:46:18.985Z,17.50
2023-01-20T08:48:48.138Z,17.50
2023-01-20T08:51:21.292Z,17.60
2023-01-20T08:53:49.344Z,17.60
2023-01-20T08:56:17.893Z,17.60
2023-01-20T08:58:45.936Z,17.60
2023-01-20T09:01:16.899Z,17.70
2023-01-20T09:03:59.027Z,17.70
2023-01-20T09:06:39.948Z,17.70
2023-01-20T09:09:07.329Z,17.70
2023-01-20T09:11:35.286Z,17.80
2023-01-20T09:14:02.803Z,17.70
2023-01-20T09:16:30.137Z,17.70
2023-01-20T09:18:57.488Z,17.70
2023-01-20T09:21:24.864Z,17.70
2023-01-20T09:23:52.314Z,17.80
2023-01-20T09:26:34.353Z,17.80
2023-01-20T09:29:09.341Z,17.80
2023-01-20T09:31:58.303Z,17.80
2023-01-20T09:34:29.493Z,17.80
2023-01-20T09:37:19.159Z,17.90
2023-01-20T09:45:39.850Z,17.80
2023-01-20T09:48:41.330Z,17.80
2023-01-20T09:51:37.443Z,17.80
2023-01-20T09:54:14.638Z,17.90
2023-01-20T09:56:46.743Z,17.90
2023-01-20T09:59:35.864Z,17.90
2023-01-20T10:02:13.346Z,17.90
2023-01-20T10:05:24.143Z,17.70
2023-01-20T10:08:01.326Z,17.90
2023-01-20T10:13:16.083Z,17.80
2023-01-20T10:15:50.645Z,17.80
2023-01-20T10:18:37.605Z,17.80
2023-01-20T10:21:16.864Z,17.80
2023-01-20T10:24:07.563Z,17.80
2023-01-20T10:26:50.827Z,17.80
2023-01-20T10:29:27.732Z,17.80
2023-01-20T10:32:04.313Z,17.80
2023-01-20T10:34:42.467Z,17.80
2023-01-20T10:37:11.827Z,17.80
2023-01-20T10:40:01.736Z,17.90
2023-01-20T10:42:29.214Z,17.90
2023-01-20T11:00:17.947Z,17.90
2023-01-20T11:02:49.199Z,18.00
2023-01-20T11:05:44.239Z,18.00
2023-01-20T11:08:29.188Z,18.00
2023-01-20T11:13:25.679Z,18.00
2023-01-20T11:16:06.941Z,18.00
2023-01-20T11:18:34.358Z,18.00
2023-01-20T11:21:11.799Z,18.00
2023-01-20T11:26:35.863Z,18.00
2023-01-20T11:29:09.223Z,18.00
2023-01-20T11:34:31.343Z,18.00
2023-01-20T11:37:04.702Z,18.00
2023-01-20T11:39:33.930Z,18.00
2023-01-20T11:44:44.909Z,17.80
2023-01-20T11:47:33.736Z,17.80
2023-01-20T11:50:04.136Z,17.90
2023-01-20T11:52:43.762Z,17.90
2023-01-20T11:55:18.064Z,17.90
2023-01-20T11:57:58.483Z,17.90
2023-01-20T12:00:40.373Z,18.00
2023-01-20T12:03:10.670Z,18.00
2023-01-20T12:05:43.991Z,18.00
2023-01-20T12:08:21.256Z,18.00
2023-01-20T12:10:49.788Z,18.10
2023-01-20T12:13:27.999Z,18.10
2023-01-20T12:15:59.536Z,18.00
2023-01-20T12:18:38.781Z,18.00
2023-01-20T12:21:17.968Z,18.10
2023-01-20T12:26:21.618Z,18.10
2023-01-20T12:29:02.800Z,18.10
2023-01-20T12:31:31.298Z,18.10
2023-01-20T12:34:14.758Z,18.10
2023-01-20T12:36:49.596Z,18.10
2023-01-20T12:39:19.927Z,18.10
2023-01-20T12:42:05.947Z,18.10
2023-01-20T12:44:50.466Z,18.10
2023-01-20T12:47:41.935Z,18.10
2023-01-20T12:50:23.388Z,18.10
2023-01-20T12:53:38.821Z,18.10
2023-01-20T12:56:21.464Z,18.10
2023-01-20T12:59:26.104Z,18.30
2023-01-20T13:02:11.831Z,18.10
2023-01-20T13:04:57.999Z,18.30
2023-01-20T13:07:25.119Z,18.10
2023-01-20T13:10:03.586Z,18.10
2023-01-20T13:12:33.691Z,18.10
2023-01-20T13:15:09.791Z,18.10
2023-01-20T13:17:47.904Z,18.10
2023-01-20T13:20:26.229Z,18.10
2023-01-20T13:22:53.767Z,18.10
2023-01-20T13:25:22.080Z,18.10
2023-01-20T13:27:51.344Z,18.10
2023-01-20T13:35:24.934Z,18.10
2023-01-20T13:37:54.716Z,18.10
2023-01-20T13:40:37.272Z,18.10
2023-01-20T13:43:20.376Z,18.10
2023-01-20T13:45:48.086Z,18.10
2023-01-20T13:48:15.413Z,18.10
2023-01-20T13:50:43.771Z,18.10
2023-01-20T13:53:11.314Z,18.10
2023-01-20T13:55:45.052Z,18.10
2023-01-20T13:58:13.759Z,18.10
2023-01-20T14:00:41.398Z,18.10
2023-01-20T14:03:31.686Z,18.10
2023-01-20T14:06:12.033Z,18.10
2023-01-20T14:08:47.810Z,18.10
2023-01-20T14:11:17.651Z,18.10
2023-01-20T14:14:21.363Z,18.10
2023-01-20T14:16:49.104Z,18.10
2023-01-20T14:19:31.924Z,18.10
2023-01-20T14:22:04.462Z,18.10
2023-01-20T14:24:37.651Z,18.10
2023-01-20T14:27:14.175Z,18.20
2023-01-20T14:29:41.499Z,18.20
2023-01-20T14:32:26.092Z,18.20
2023-01-20T14:34:54.399Z,18.20
2023-01-20T14:37:32.852Z,18.20
2023-01-20T14:40:08.311Z,18.20
2023-01-20T14:42:36.714Z,18.20
2023-01-20T14:45:21.787Z,18.20
2023-01-20T14:47:50.070Z,18.20
2023-01-20T14:50:19.004Z,18.30
2023-01-20T14:52:46.740Z,18.30
2023-01-20T14:55:34.359Z,18.20
2023-01-20T14:58:16.959Z,18.30
2023-01-20T15:00:49.356Z,18.30
2023-01-20T15:03:25.624Z,18.30
2023-01-20T15:05:58.845Z,18.30
2023-01-20T15:08:33.433Z,18.40
2023-01-20T15:11:18.880Z,18.40
2023-01-20T15:13:53.189Z,18.40
2023-01-20T15:16:26.230Z,18.50
2023-01-20T15:19:22.728Z,18.50
2023-01-20T15:22:11.235Z,18.50
2023-01-20T15:24:47.284Z,18.50
2023-01-20T15:27:41.117Z,18.60
2023-01-20T15:30:20.342Z,18.60
2023-01-20T15:32:48.890Z,18.60
2023-01-20T15:35:20.070Z,18.70
2023-01-20T15:37:47.672Z,18.70
2023-01-20T15:40:20.790Z,18.70
2023-01-20T15:42:48.690Z,18.70
2023-01-20T15:45:17.223Z,18.70
2023-01-20T15:47:46.554Z,18.70
2023-01-20T15:50:22.483Z,18.70
2023-01-20T15:52:50.386Z,18.70
2023-01-20T15:55:19.406Z,18.70
2023-01-20T15:57:51.596Z,18.80
2023-01-20T16:00:21.766Z,18.80
2023-01-20T16:02:49.379Z,18.80
2023-01-20T16:05:17.820Z,18.80
2023-01-20T16:07:47.567Z,18.80
2023-01-20T16:10:19.838Z,18.80
2023-01-20T16:12:47.850Z,18.80
2023-01-20T16:15:17.514Z,18.80
2023-01-20T16:17:44.751Z,18.80
2023-01-20T16:20:23.798Z,18.80
2023-01-20T16:22:51.853Z,18.80
2023-01-20T16:25:20.130Z,18.80
2023-01-20T16:27:47.454Z,18.90
2023-01-20T16:30:17.503Z,18.90
2023-01-20T16:32:46.362Z,18.90
2023-01-20T16:35:15.414Z,18.90
2023-01-20T16:37:44.417Z,18.90
2023-01-20T16:40:20.384Z,18.90
2023-01-20T16:42:48.241Z,19.00
2023-01-20T16:45:29.457Z,18.90
2023-01-20T16:47:57.316Z,18.90
2023-01-20T16:50:27.869Z,18.90
2023-01-20T16:52:55.312Z,18.90
2023-01-20T16:55:23.917Z,18.90
2023-01-20T16:57:51.262Z,18.90
2023-01-20T17:00:19.690Z,18.90
2023-01-20T17:02:53.640Z,18.90
2023-01-20T17:05:25.767Z,18.90
2023-01-20T17:07:54.508Z,18.90
2023-01-20T17:10:21.940Z,18.90
2023-01-20T17:12:52.095Z,18.90
2023-01-20T17:15:19.981Z,18.90
2023-01-20T17:17:51.774Z,18.90
2023-01-20T17:20:19.188Z,18.90
2023-01-20T17:22:46.849Z,18.90
2023-01-20T17:25:17.886Z,18.80
2023-01-20T17:27:45.396Z,18.90
2023-01-20T17:30:13.085Z,18.90
2023-01-20T17:32:40.466Z,18.90
2023-01-20T17:35:08.000Z,18.90
2023-01-20T17:37:35.319Z,19.00
2023-01-20T17:40:02.686Z,19.00
2023-01-20T17:42:30.025Z,19.00
2023-01-20T17:45:01.382Z,19.00
2023-01-20T17:47:31.312Z,19.00
2023-01-20T17:49:58.823Z,19.00
2023-01-20T17:52:27.345Z,19.00
2023-01-20T17:54:54.731Z,19.00
2023-01-20T17:57:22.122Z,19.00
2023-01-20T17:59:49.577Z,19.00
2023-01-20T18:02:18.659Z,19.00
2023-01-20T18:04:45.913Z,19.00
2023-01-20T18:07:13.663Z,19.10
2023-01-20T18:09:42.961Z,19.10
2023-01-20T18:12:10.194Z,19.10
2023-01-20T18:14:37.359Z,19.10
2023-01-20T18:17:04.686Z,19.10
2023-01-20T18:19:31.886Z,19.10
2023-01-20T18:22:01.543Z,19.10
2023-01-20T18:24:28.641Z,19.10
2023-01-20T18:26:57.654Z,19.10
2023-01-20T18:29:25.112Z,19.10
2023-01-20T18:31:52.385Z,19.10
2023-01-20T18:34:19.550Z,19.10
2023-01-20T18:36:47.037Z,19.10
2023-01-20T18:39:14.202Z,19.10
2023-01-20T18:41:41.370Z,19.10
2023-01-20T18:44:08.655Z,19.10
2023-01-20T18:46:36.039Z,19.10
2023-01-20T18:49:03.582Z,19.10
2023-01-20T18:51:30.902Z,19.20
2023-01-20T18:54:04.878Z,19.10
2023-01-20T18:56:35.515Z,19.10
2023-01-20T18:59:03.403Z,19.20
2023-01-20T19:01:33.773Z,19.20
2023-01-20T19:04:01.614Z,19.20
2023-01-20T19:06:29.811Z,19.20
2023-01-20T19:08:57.707Z,19.20
2023-01-20T19:11:26.380Z,19.30
2023-01-20T19:13:54.089Z,19.30
2023-01-20T19:16:22.581Z,19.30
2023-01-20T19:18:50.919Z,19.30
2023-01-20T19:21:18.096Z,19.20
2023-01-20T19:23:48.344Z,19.30
2023-01-20T19:26:18.601Z,19.30
2023-01-20T19:28:46.362Z,19.30
2023-01-20T19:31:15.516Z,19.30
2023-01-20T19:33:42.968Z,19.30
2023-01-20T19:36:12.777Z,19.40
2023-01-20T19:38:40.286Z,19.30
2023-01-20T19:41:08.371Z,19.40
2023-01-20T19:43:35.720Z,19.40
2023-01-20T19:46:03.891Z,19.40
2023-01-20T19:48:31.551Z,19.40
2023-01-20T19:51:03.365Z,19.50
2023-01-20T19:53:30.834Z,19.50
2023-01-20T19:56:05.331Z,19.50
2023-01-20T19:58:32.591Z,19.50
2023-01-20T20:01:14.332Z,19.50
2023-01-20T20:03:41.791Z,19.50
2023-01-20T20:06:21.106Z,19.50
2023-01-20T20:08:48.414Z,19.50
2023-01-20T20:11:15.915Z,19.50
2023-01-20T20:13:43.069Z,19.50
2023-01-20T20:16:10.280Z,19.50
2023-01-20T20:18:37.445Z,19.50
2023-01-20T20:21:05.867Z,19.50
2023-01-20T20:23:32.999Z,19.50
2023-01-20T20:26:00.120Z,19.50
2023-01-20T20:28:28.185Z,19.50
2023-01-20T20:30:55.641Z,19.40
2023-01-20T20:33:23.692Z,19.40
2023-01-20T20:35:50.972Z,19.50
2023-01-20T20:38:18.115Z,19.40
2023-01-20T20:40:45.400Z,19.40
2023-01-20T20:43:12.482Z,19.40
2023-01-20T20:45:39.570Z,19.40
2023-01-20T20:48:09.872Z,19.40
2023-01-20T20:50:36.982Z,19.40
2023-01-20T20:53:04.067Z,19.40
2023-01-20T20:55:31.264Z,19.40
2023-01-20T20:57:58.378Z,19.50
2023-01-20T21:00:28.180Z,19.40
2023-01-20T21:02:55.370Z,19.40
2023-01-20T21:05:22.519Z,19.40
2023-01-20T21:07:49.703Z,19.40
2023-01-20T21:10:17.722Z,19.40
2023-01-20T21:12:45.821Z,19.40
2023-01-20T21:15:13.709Z,19.40
2023-01-20T21:17:41.388Z,19.40
2023-01-20T21:20:09.170Z,19.40
2023-01-20T21:22:36.400Z,19.40
2023-01-20T21:25:03.612Z,19.40
2023-01-20T21:27:31.896Z,19.40
2023-01-20T21:29:59.059Z,19.40
2023-01-20T21:32:26.229Z,19.40
2023-01-20T21:34:55.093Z,19.30
2023-01-20T21:37:22.187Z,19.30
2023-01-20T21:39:49.303Z,19.30
2023-01-20T21:42:16.435Z,19.40
2023-01-20T21:44:43.671Z,19.40
2023-01-20T21:47:11.601Z,19.40
2023-01-20T21:49:57.168Z,19.30
2023-01-20T21:52:44.041Z,19.40
2023-01-20T21:55:11.277Z,19.40
2023-01-20T21:57:38.916Z,19.30
2023-01-20T22:00:07.243Z,19.30
2023-01-20T22:02:43.401Z,19.30
2023-01-20T22:05:11.358Z,19.30
2023-01-20T22:07:38.654Z,19.30
2023-01-20T22:10:06.043Z,19.30
2023-01-20T22:12:34.728Z,19.30
2023-01-20T22:15:02.259Z,19.30
2023-01-20T22:17:29.997Z,19.30
2023-01-20T22:19:57.142Z,19.30
2023-01-20T22:22:24.263Z,19.30
2023-01-20T22:24:51.946Z,19.30
2023-01-20T22:27:19.104Z,19.30
2023-01-20T22:29:46.331Z,19.30
2023-01-20T22:32:13.465Z,19.30
2023-01-20T22:34:40.596Z,19.30
2023-01-20T22:37:07.753Z,19.30
2023-01-20T22:39:34.976Z,19.20
2023-01-20T22:42:02.466Z,19.20
2023-01-20T22:44:29.870Z,19.20
2023-01-20T22:46:57.074Z,19.20
2023-01-20T22:49:24.192Z,19.10
2023-01-20T22:51:53.775Z,19.20
2023-01-20T22:54:20.993Z,19.10
2023-01-20T22:56:48.244Z,19.10
2023-01-20T22:59:15.384Z,19.10
2023-01-20T23:01:42.562Z,19.10
2023-01-20T23:04:10.247Z,19.10
2023-01-20T23:06:37.713Z,19.10
2023-01-20T23:09:06.796Z,19.10
2023-01-20T23:11:36.167Z,19.10
2023-01-20T23:14:03.655Z,19.10
2023-01-20T23:16:30.951Z,19.10
2023-01-20T23:18:58.113Z,19.10
2023-01-20T23:21:25.398Z,19.10
2023-01-20T23:23:54.887Z,19.00
2023-01-20T23:26:23.515Z,19.00
2023-01-20T23:28:51.000Z,19.00
2023-01-20T23:31:18.476Z,19.00
2023-01-20T23:33:45.660Z,19.00
2023-01-20T23:36:16.872Z,19.00
2023-01-20T23:38:44.509Z,19.00
2023-01-20T23:41:12.126Z,19.00
2023-01-20T23:43:39.686Z,18.90
2023-01-20T23:46:07.593Z,18.90
2023-01-20T23:48:35.191Z,18.90
2023-01-20T23:51:03.782Z,18.90
2023-01-20T23:53:31.862Z,18.90
2023-01-20T23:56:00.159Z,18.90
2023-01-20T23:58:27.458Z,18.90
